Time;durP1;ratioP1;P1;durP2;ratioP2;P2;SDS_P1;SDS_P2;PMS_P1;PMS_P2;Temp;Humidity;BMP_temperature;BMP_pressure;BME280_temperature;BME280_humidity;BME280_pressure;Samples;Min_cycle;Max_cycle;Signal;HPM_P1;HPM_P2
2021/04/27 00:02:15;;;;;;;5.65;2.75;;;;;;;8.84;52.56;101623.50;5075583;28;20040;-85
2021/04/27 00:04:42;;;;;;;5.47;2.67;;;;;;;8.81;52.14;101620.00;5077056;28;20091;-83
2021/04/27 00:07:09;;;;;;;4.80;2.78;;;;;;;8.79;52.54;101614.72;5074381;28;20106;-86
2021/04/27 00:09:37;;;;;;;5.95;3.05;;;;;;;8.77;52.17;101605.03;5057087;28;20021;-86
2021/04/27 00:12:16;;;;;;;5.07;2.50;;;;;;;8.77;52.02;101610.31;5059935;28;20032;-82
2021/04/27 00:14:43;;;;;;;6.05;2.58;;;;;;;8.72;52.74;101597.09;5066578;28;20024;-87
2021/04/27 00:17:10;;;;;;;4.82;2.90;;;;;;;8.65;52.76;101604.16;5081166;28;20032;-85
2021/04/27 00:19:36;;;;;;;4.43;2.75;;;;;;;8.62;52.31;101598.84;5089164;28;20067;-84
2021/04/27 00:22:03;;;;;;;7.25;2.90;;;;;;;8.56;52.49;101593.56;5080367;28;20106;-86
2021/04/27 00:24:31;;;;;;;4.60;2.78;;;;;;;8.55;52.78;101583.91;5073474;28;20494;-84
2021/04/27 00:26:59;;;;;;;5.63;2.83;;;;;;;8.54;52.50;101574.22;5073347;28;20024;-85
2021/04/27 00:29:28;;;;;;;7.55;3.45;;;;;;;8.51;52.73;101576.84;5055492;28;20029;-82
2021/04/27 00:31:54;;;;;;;6.57;2.97;;;;;;;8.48;52.74;101579.50;5077032;28;20132;-83
2021/04/27 00:34:21;;;;;;;7.53;3.45;;;;;;;8.43;52.81;101576.81;5077806;28;20053;-82
2021/04/27 00:36:48;;;;;;;6.15;2.83;;;;;;;8.41;52.84;101570.63;5073152;28;20016;-84
2021/04/27 00:39:15;;;;;;;6.30;3.78;;;;;;;8.35;53.04;101565.34;5081887;28;20031;-85
2021/04/27 00:41:42;;;;;;;6.68;2.92;;;;;;;8.28;53.43;101571.53;5077993;28;20039;-84
2021/04/27 00:44:09;;;;;;;5.18;3.13;;;;;;;8.26;53.36;101555.66;5072858;28;20391;-84
2021/04/27 00:46:35;;;;;;;4.20;2.75;;;;;;;8.25;52.94;101554.78;5072889;28;20028;-84
2021/04/27 00:49:02;;;;;;;5.00;2.95;;;;;;;8.21;53.11;101547.75;5073085;28;20036;-84
2021/04/27 00:51:29;;;;;;;9.25;3.15;;;;;;;8.20;53.27;101545.09;5086551;28;20094;-85
2021/04/27 00:53:55;;;;;;;5.20;3.05;;;;;;;8.17;53.70;101545.97;5072851;28;20089;-85
2021/04/27 00:56:23;;;;;;;5.22;2.40;;;;;;;8.15;53.25;101553.03;5062564;28;20056;-84
2021/04/27 00:58:49;;;;;;;4.72;2.83;;;;;;;8.14;53.36;101548.63;5072672;28;20020;-83
2021/04/27 01:01:16;;;;;;;7.82;2.88;;;;;;;8.10;53.06;101547.72;5072787;28;20036;-84
2021/04/27 01:03:42;;;;;;;6.20;3.20;;;;;;;8.09;53.58;101548.59;5072594;28;20078;-82
2021/04/27 01:06:09;;;;;;;6.15;3.00;;;;;;;8.06;53.50;101551.25;5072609;28;20407;-85
2021/04/27 01:08:59;;;;;;;3.30;2.78;;;;;;;8.14;53.99;101538.06;5072587;28;20495;-83
2021/04/27 01:17:01;;;;;;;10.85;3.65;;;;;;;7.95;54.03;101523.97;5079193;28;20227;-83
2021/04/27 01:19:34;;;;;;;7.72;3.55;;;;;;;7.93;53.73;101529.22;5064332;28;20464;-85
2021/04/27 01:22:01;;;;;;;6.10;3.28;;;;;;;7.88;54.26;101527.47;5060439;28;20115;-84
2021/04/27 01:24:35;;;;;;;7.93;3.08;;;;;;;7.91;54.00;101523.06;5060932;28;20039;-85
2021/04/27 01:27:03;;;;;;;9.35;3.47;;;;;;;7.86;53.66;101531.84;5041444;28;20501;-84
2021/04/27 01:29:32;;;;;;;8.32;4.25;;;;;;;7.82;53.90;101527.44;5049035;28;20092;-85
2021/04/27 01:32:02;;;;;;;5.88;3.35;;;;;;;7.77;54.24;101525.66;5060530;28;20025;-85
2021/04/27 01:34:32;;;;;;;5.88;3.22;;;;;;;7.76;54.36;101523.91;5061440;28;20466;-86
2021/04/27 01:36:59;;;;;;;7.35;3.67;;;;;;;7.72;54.39;101516.84;5049986;28;20091;-86
2021/04/27 01:39:27;;;;;;;5.18;3.47;;;;;;;7.70;54.09;101518.63;5045874;28;20125;-85
2021/04/27 01:41:55;;;;;;;8.02;4.10;;;;;;;7.68;54.36;101515.09;5061678;28;20033;-82
2021/04/27 01:44:22;;;;;;;5.70;3.22;;;;;;;7.64;54.32;101518.63;5062886;28;20542;-84
2021/04/27 01:46:49;;;;;;;7.22;3.65;;;;;;;7.63;54.74;101514.22;5055410;28;20033;-86
2021/04/27 01:49:17;;;;;;;7.60;3.97;;;;;;;7.61;54.60;101515.94;5052351;28;20409;-85
2021/04/27 01:51:44;;;;;;;6.00;3.45;;;;;;;7.59;54.67;101510.69;5049745;28;20383;-85
2021/04/27 01:54:11;;;;;;;5.97;3.67;;;;;;;7.59;54.27;101508.03;5062718;28;20488;-84
2021/04/27 01:56:37;;;;;;;6.82;3.42;;;;;;;7.58;54.70;101508.03;5061642;28;20525;-85
2021/04/27 01:59:05;;;;;;;10.25;3.88;;;;;;;7.58;54.54;101508.03;5054145;28;20029;-85
2021/04/27 02:01:32;;;;;;;6.05;3.85;;;;;;;7.55;54.61;101513.28;5040829;28;20033;-86
2021/04/27 02:03:59;;;;;;;9.10;4.10;;;;;;;7.51;54.43;101501.84;5049202;28;20029;-84
2021/04/27 02:06:25;;;;;;;7.20;3.55;;;;;;;7.49;54.52;101502.72;5053065;28;20120;-84
2021/04/27 02:11:39;;;;;;;5.30;3.53;;;;;;;7.45;55.25;101508.00;5075997;27;20802;-83
2021/04/27 02:14:08;;;;;;;8.40;3.83;;;;;;;7.40;55.14;101498.28;5062921;28;20115;-84
2021/04/27 02:17:06;;;;;;;6.80;3.75;;;;;;;7.48;54.93;101501.84;5062201;28;20021;-84
2021/04/27 02:19:34;;;;;;;7.50;4.35;;;;;;;7.38;55.09;101500.06;5054281;28;20484;-84
2021/04/27 02:22:07;;;;;;;7.53;4.30;;;;;;;7.37;55.10;101491.25;5052040;28;20037;-84
2021/04/27 02:24:35;;;;;;;4.68;4.03;;;;;;;7.33;55.08;101492.13;5066682;28;20029;-85
2021/04/27 02:27:02;;;;;;;7.43;4.63;;;;;;;7.31;55.23;101482.47;5063369;28;20020;-84
2021/04/27 02:29:29;;;;;;;4.43;3.78;;;;;;;7.28;55.27;101486.84;5054535;28;20431;-83
2021/04/27 02:31:58;;;;;;;8.15;4.18;;;;;;;7.27;55.32;101481.56;5057965;28;20456;-83
2021/04/27 02:34:26;;;;;;;8.15;3.70;;;;;;;7.27;55.48;101481.56;5054463;28;20036;-85
2021/04/27 02:36:54;;;;;;;7.57;4.40;;;;;;;7.25;55.24;101478.03;5063848;28;20598;-84
2021/04/27 02:39:21;;;;;;;6.05;3.85;;;;;;;7.23;55.34;101475.41;5059719;28;20477;-85
2021/04/27 02:41:47;;;;;;;6.65;3.63;;;;;;;7.21;55.35;101471.00;5054855;28;20029;-83
2021/04/27 02:44:14;;;;;;;7.25;4.75;;;;;;;7.18;55.43;101468.34;5052756;28;20030;-83
2021/04/27 02:46:43;;;;;;;9.05;4.25;;;;;;;7.17;55.69;101466.59;5065399;28;20025;-83
2021/04/27 02:49:10;;;;;;;5.53;3.60;;;;;;;7.15;55.29;101473.59;5064425;28;20488;-82
2021/04/27 02:51:37;;;;;;;7.22;4.15;;;;;;;7.10;55.42;101469.22;5056468;28;20099;-85
2021/04/27 02:54:05;;;;;;;6.18;3.83;;;;;;;7.08;55.24;101470.94;5054765;28;20029;-83
2021/04/27 02:56:32;;;;;;;11.10;4.18;;;;;;;7.06;55.23;101472.69;5054833;28;20492;-86
2021/04/27 02:59:00;;;;;;;6.82;3.72;;;;;;;7.06;55.30;101461.28;5066289;28;20037;-85
2021/04/27 03:01:27;;;;;;;8.93;3.83;;;;;;;7.01;55.30;101460.38;5060192;28;20065;-84
2021/04/27 03:03:53;;;;;;;6.68;4.00;;;;;;;6.99;55.59;101457.75;5055575;28;20025;-84
2021/04/27 03:06:20;;;;;;;4.28;3.20;;;;;;;6.98;55.39;101453.34;5054403;28;20025;-84
2021/04/27 03:08:46;;;;;;;4.07;3.25;;;;;;;6.98;55.36;101448.06;5056925;28;20511;-85
2021/04/27 03:11:18;;;;;;;5.43;3.42;;;;;;;6.96;55.44;101455.06;5066608;28;20036;-84
2021/04/27 03:13:45;;;;;;;5.20;3.80;;;;;;;6.92;55.43;101453.31;5058291;28;20384;-85
2021/04/27 03:16:11;;;;;;;5.15;3.58;;;;;;;6.88;55.56;101440.97;5057628;28;20108;-84
2021/04/27 03:18:38;;;;;;;6.13;3.47;;;;;;;6.86;55.42;101453.28;5052421;28;20079;-86
2021/04/27 03:21:04;;;;;;;8.18;5.10;;;;;;;6.84;55.37;101444.47;5055291;28;20033;-85
2021/04/27 03:23:31;;;;;;;6.45;3.70;;;;;;;6.80;55.46;101444.47;5049960;28;20367;-85
2021/04/27 03:25:57;;;;;;;4.22;3.35;;;;;;;6.80;55.44;101436.56;5044190;28;20033;-85
2021/04/27 03:28:24;;;;;;;4.07;3.00;;;;;;;6.77;55.59;101435.66;5044816;28;20459;-85
2021/04/27 03:30:53;;;;;;;8.00;4.05;;;;;;;6.79;55.56;101441.81;5038415;28;20517;-86
2021/04/27 03:33:19;;;;;;;10.52;3.65;;;;;;;6.72;55.51;101435.63;5048672;28;20122;-86
2021/04/27 03:35:46;;;;;;;8.40;3.45;;;;;;;6.73;55.55;101432.13;5048400;28;20029;-85
2021/04/27 03:38:13;;;;;;;9.73;4.70;;;;;;;6.72;55.79;101424.25;5046264;28;20401;-84
2021/04/27 03:40:40;;;;;;;8.57;3.83;;;;;;;6.73;55.82;101429.50;5042723;28;20029;-84
2021/04/27 03:43:07;;;;;;;5.75;3.75;;;;;;;6.74;55.77;101427.75;5037486;28;20022;-85
2021/04/27 03:45:35;;;;;;;6.85;3.60;;;;;;;6.73;55.92;101426.88;5039172;28;20022;-85
2021/04/27 03:48:05;;;;;;;9.55;4.00;;;;;;;6.73;55.83;101426.88;5045973;28;20053;-84
2021/04/27 03:50:32;;;;;;;8.25;4.55;;;;;;;6.71;55.86;101423.34;5045168;28;20396;-83
2021/04/27 03:52:58;;;;;;;8.30;4.15;;;;;;;6.72;55.95;101425.09;5037201;28;20032;-83
2021/04/27 03:55:25;;;;;;;11.15;5.20;;;;;;;6.72;55.79;101430.38;5047030;28;20060;-83
2021/04/27 03:57:52;;;;;;;7.38;3.85;;;;;;;6.72;56.10;101424.25;5035658;28;20025;-82
2021/04/27 04:00:19;;;;;;;5.28;3.35;;;;;;;6.74;55.71;101428.63;5045863;28;20963;-83
2021/04/27 04:02:45;;;;;;;6.90;3.50;;;;;;;6.75;55.98;101424.25;5040863;28;20488;-84
2021/04/27 04:05:13;;;;;;;7.82;3.95;;;;;;;6.77;55.86;101418.09;5035870;28;20037;-83
2021/04/27 04:07:40;;;;;;;6.85;3.50;;;;;;;6.82;55.67;101425.13;5047199;28;20120;-84
2021/04/27 04:10:08;;;;;;;6.50;4.03;;;;;;;6.82;55.80;101426.03;5049740;28;20037;-82
2021/04/27 04:12:39;;;;;;;5.38;3.33;;;;;;;6.83;55.70;101419.00;5049553;28;20032;-83
2021/04/27 04:15:10;;;;;;;6.97;3.97;;;;;;;6.86;55.68;101422.53;5044113;28;20026;-84
2021/04/27 04:17:37;;;;;;;11.27;4.18;;;;;;;6.88;55.59;101412.00;5039392;28;20041;-83
2021/04/27 04:20:07;;;;;;;11.27;3.55;;;;;;;6.92;55.64;101405.88;5038545;28;20016;-83
2021/04/27 04:22:33;;;;;;;5.65;4.03;;;;;;;6.95;55.66;101405.88;5051215;28;20035;-83
2021/04/27 04:25:00;;;;;;;9.18;3.85;;;;;;;7.01;55.59;101415.59;5048125;28;20025;-82
2021/04/27 04:27:26;;;;;;;8.88;4.25;;;;;;;7.04;55.61;101413.84;5039965;28;20079;-84
2021/04/27 04:29:52;;;;;;;5.97;3.88;;;;;;;7.11;55.79;101409.47;5037248;28;20033;-85
2021/04/27 04:32:18;;;;;;;5.72;3.67;;;;;;;7.18;55.77;101407.72;5037638;28;20029;-81
2021/04/27 04:34:45;;;;;;;6.13;3.97;;;;;;;7.23;55.82;101398.09;5049040;28;20070;-82
2021/04/27 04:37:11;;;;;;;4.88;3.72;;;;;;;7.33;55.39;101394.59;5044791;28;20111;-85
2021/04/27 04:39:37;;;;;;;9.40;4.55;;;;;;;7.39;55.55;101396.34;5039060;28;20053;-82
2021/04/27 04:42:04;;;;;;;6.47;4.07;;;;;;;7.49;55.32;101391.97;5037086;28;20429;-82
2021/04/27 04:44:30;;;;;;;6.30;3.58;;;;;;;7.57;55.19;101395.53;5038269;28;20484;-83
2021/04/27 04:46:57;;;;;;;4.38;3.72;;;;;;;7.66;55.14;101398.16;5049020;28;20036;-82
2021/04/27 04:49:24;;;;;;;11.23;4.00;;;;;;;7.75;54.92;101398.19;5041287;28;20048;-82
2021/04/27 04:51:52;;;;;;;5.82;4.00;;;;;;;7.80;54.90;101403.47;5037994;28;20030;-82
2021/04/27 04:54:20;;;;;;;6.82;3.47;;;;;;;7.87;54.62;101401.69;5052271;28;20124;-83
2021/04/27 04:56:47;;;;;;;8.52;4.00;;;;;;;7.95;54.39;101399.94;5050915;28;20070;-81
2021/04/27 04:59:14;;;;;;;5.20;3.92;;;;;;;8.01;54.57;101402.59;5046071;28;20156;-83
2021/04/27 05:01:40;;;;;;;6.53;3.67;;;;;;;8.09;54.16;101392.00;5039923;28;20056;-84
2021/04/27 05:04:07;;;;;;;6.45;3.72;;;;;;;8.15;54.44;101399.03;5038679;28;20497;-85
2021/04/27 05:06:40;;;;;;;6.55;3.78;;;;;;;8.20;53.95;101398.16;5038978;28;20103;-86
2021/04/27 05:09:10;;;;;;;4.22;3.28;;;;;;;8.31;53.66;101403.44;5049919;28;20193;-85
2021/04/27 05:11:36;;;;;;;8.45;4.30;;;;;;;8.33;54.05;101395.50;5053699;28;20037;-86
2021/04/27 05:14:02;;;;;;;9.00;4.30;;;;;;;8.41;53.79;101391.97;5044418;28;20022;-85
2021/04/27 05:16:29;;;;;;;5.72;3.85;;;;;;;8.48;54.01;101392.84;5060424;28;20064;-82
2021/04/27 05:18:57;;;;;;;9.02;4.57;;;;;;;8.50;53.34;101400.75;5058721;28;20100;-82
2021/04/27 05:21:23;;;;;;;6.90;4.30;;;;;;;8.58;53.63;101404.28;5058036;28;20032;-84
2021/04/27 05:23:50;;;;;;;8.27;3.88;;;;;;;8.62;53.10;101392.81;5048718;28;20464;-85
2021/04/27 05:26:18;;;;;;;4.95;3.83;;;;;;;8.62;53.26;101397.22;5051833;28;20040;-82
2021/04/27 05:28:44;;;;;;;5.78;4.50;;;;;;;8.65;53.16;101390.16;5038735;28;20029;-84
2021/04/27 05:31:10;;;;;;;11.20;4.07;;;;;;;8.67;53.03;101392.78;5033031;28;20037;-84
2021/04/27 05:33:36;;;;;;;8.85;4.97;;;;;;;8.66;53.62;101391.94;5044021;28;20025;-82
2021/04/27 05:36:03;;;;;;;9.73;5.15;;;;;;;8.68;52.93;101384.84;5045294;28;20017;-85
2021/04/27 05:38:30;;;;;;;10.32;4.57;;;;;;;8.77;53.35;101391.00;5042271;28;20123;-83
2021/04/27 05:40:56;;;;;;;6.90;4.35;;;;;;;8.79;52.71;101386.59;5040688;28;20083;-83
2021/04/27 05:43:22;;;;;;;7.05;4.03;;;;;;;8.86;52.65;101383.03;5031839;28;20408;-85
2021/04/27 05:45:48;;;;;;;8.68;3.83;;;;;;;8.82;52.98;101391.88;5039069;28;20098;-84
2021/04/27 05:48:14;;;;;;;4.88;3.90;;;;;;;8.97;52.90;101383.00;5050378;28;20028;-86
2021/04/27 05:50:41;;;;;;;8.00;5.32;;;;;;;9.01;53.10;101385.63;5049565;28;20404;-86
2021/04/27 05:53:07;;;;;;;5.10;4.07;;;;;;;9.10;53.16;101386.44;5033470;28;20100;-83
2021/04/27 05:55:35;;;;;;;7.35;4.68;;;;;;;9.16;52.83;101384.66;5045353;28;20033;-82
2021/04/27 05:58:01;;;;;;;9.35;4.88;;;;;;;9.21;53.17;101390.81;5043278;28;20076;-84
2021/04/27 06:00:28;;;;;;;8.07;5.07;;;;;;;9.28;52.67;101386.34;5043556;28;20048;-84
2021/04/27 06:02:54;;;;;;;8.15;4.68;;;;;;;9.47;52.37;101386.22;5037172;28;20026;-85
2021/04/27 06:05:20;;;;;;;10.20;4.80;;;;;;;9.55;52.03;101387.06;5033869;28;20029;-84
2021/04/27 06:07:46;;;;;;;6.90;4.03;;;;;;;9.69;51.67;101392.25;5045450;28;20025;-85
2021/04/27 06:10:13;;;;;;;6.95;3.88;;;;;;;9.80;51.79;101395.69;5044436;28;20369;-84
2021/04/27 06:12:39;;;;;;;7.45;3.83;;;;;;;9.86;51.39;101393.00;5053091;28;20107;-84
2021/04/27 06:15:06;;;;;;;8.85;5.07;;;;;;;9.91;51.47;101395.63;5042820;28;20380;-83
2021/04/27 06:17:35;;;;;;;8.63;4.50;;;;;;;9.91;51.13;101394.75;5037052;28;20030;-85
2021/04/27 06:20:04;;;;;;;9.65;4.85;;;;;;;9.93;50.89;101388.56;5034488;28;20384;-84
2021/04/27 06:22:30;;;;;;;7.85;5.38;;;;;;;10.03;50.58;101395.50;5049116;28;20035;-84
2021/04/27 06:24:56;;;;;;;9.05;4.75;;;;;;;10.15;50.67;101396.28;5051922;28;20025;-82
2021/04/27 06:27:24;;;;;;;10.05;5.07;;;;;;;10.23;50.38;101389.16;5045554;28;20112;-83
2021/04/27 06:29:51;;;;;;;5.47;4.40;;;;;;;10.37;49.90;101391.69;5046652;28;20059;-82
2021/04/27 06:32:17;;;;;;;10.18;4.50;;;;;;;10.43;50.02;101391.63;5049140;28;20040;-85
2021/04/27 06:34:44;;;;;;;5.78;4.85;;;;;;;10.45;50.39;101388.97;5046049;28;20481;-87
2021/04/27 06:37:10;;;;;;;7.13;5.07;;;;;;;10.53;49.78;101397.72;5046618;28;20059;-85
2021/04/27 06:39:43;;;;;;;10.73;4.93;;;;;;;10.67;49.33;101385.16;5037956;28;20037;-80
2021/04/27 06:42:13;;;;;;;7.03;4.70;;;;;;;10.81;49.47;101392.09;5047905;28;20022;-85
2021/04/27 06:44:39;;;;;;;6.03;4.53;;;;;;;10.79;49.35;101388.56;5034520;28;20045;-87
2021/04/27 06:47:06;;;;;;;6.90;4.28;;;;;;;10.88;48.93;101383.16;5039203;28;20056;-86
2021/04/27 06:49:34;;;;;;;10.00;5.32;;;;;;;10.93;48.71;101383.09;5033422;28;20038;-86
2021/04/27 06:52:00;;;;;;;5.10;4.25;;;;;;;11.02;48.61;101384.78;5040870;28;20025;-87
2021/04/27 06:54:26;;;;;;;5.93;4.53;;;;;;;11.12;48.51;101386.38;5046096;28;20108;-85
2021/04/27 06:56:52;;;;;;;8.80;4.80;;;;;;;11.20;48.31;101379.19;5048211;28;20036;-85
2021/04/27 06:59:20;;;;;;;4.65;3.85;;;;;;;11.28;48.40;101377.31;5053438;28;20037;-86
2021/04/27 07:01:48;;;;;;;7.47;4.35;;;;;;;11.31;48.16;101379.03;5053083;28;20033;-86
2021/04/27 07:04:17;;;;;;;8.00;4.82;;;;;;;11.38;48.19;101371.91;5050797;28;20130;-87
2021/04/27 07:06:44;;;;;;;8.20;4.50;;;;;;;11.33;47.82;101364.00;5053355;28;20112;-84
2021/04/27 07:09:10;;;;;;;9.30;5.38;;;;;;;11.27;48.24;101354.34;5052034;28;20033;-82
2021/04/27 07:11:36;;;;;;;9.10;5.40;;;;;;;11.26;48.24;101351.72;5053199;28;20459;-84
2021/04/27 07:14:03;;;;;;;10.32;5.40;;;;;;;11.21;48.41;101348.25;5052456;28;20488;-83
2021/04/27 07:16:29;;;;;;;6.95;4.97;;;;;;;11.35;47.93;101348.03;5052925;28;20498;-80
2021/04/27 07:18:55;;;;;;;9.85;5.47;;;;;;;11.42;48.17;101352.38;5053791;28;20025;-85
2021/04/27 07:21:22;;;;;;;9.05;5.30;;;;;;;11.51;47.88;101357.50;5053298;28;20111;-84
2021/04/27 07:23:49;;;;;;;6.50;5.10;;;;;;;11.62;47.67;101360.88;5050510;28;20039;-83
2021/04/27 07:26:16;;;;;;;7.82;4.68;;;;;;;11.61;47.56;101361.78;5050568;28;20116;-84
2021/04/27 07:28:42;;;;;;;8.10;5.22;;;;;;;11.60;47.80;101357.38;5051040;28;20365;-84
2021/04/27 07:31:08;;;;;;;6.28;4.85;;;;;;;11.65;47.52;101344.91;5052268;28;20037;-84
2021/04/27 07:33:35;;;;;;;7.13;5.03;;;;;;;11.72;47.57;101337.72;5052362;28;20056;-84
2021/04/27 07:36:01;;;;;;;12.52;6.13;;;;;;;11.78;47.52;101339.41;5053063;28;20029;-85
2021/04/27 07:38:27;;;;;;;17.10;8.95;;;;;;;11.90;47.40;101344.50;5053348;28;20492;-89
2021/04/27 07:40:53;;;;;;;12.00;5.78;;;;;;;11.93;47.37;101344.44;5052691;28;20515;-85
2021/04/27 07:43:20;;;;;;;8.55;5.60;;;;;;;12.03;46.97;101352.28;5052516;28;20380;-85
2021/04/27 07:45:46;;;;;;;6.80;4.57;;;;;;;12.11;46.16;101347.69;5051119;28;20029;-83
2021/04/27 07:48:12;;;;;;;6.07;4.45;;;;;;;12.16;47.02;101343.16;5053778;28;20106;-84
2021/04/27 07:50:39;;;;;;;10.27;5.20;;;;;;;12.28;46.37;101350.03;5053884;28;20044;-85
2021/04/27 07:53:05;;;;;;;8.38;5.05;;;;;;;12.38;45.99;101334.81;5051904;28;20480;-85
2021/04/27 07:55:32;;;;;;;7.82;5.13;;;;;;;12.44;45.99;101340.00;5051165;28;20040;-83
2021/04/27 07:57:58;;;;;;;10.38;6.00;;;;;;;12.37;45.92;101333.03;5050782;28;20032;-85
2021/04/27 08:00:26;;;;;;;7.47;5.57;;;;;;;12.49;46.04;101322.16;5052984;28;20037;-82
2021/04/27 08:02:52;;;;;;;10.73;5.78;;;;;;;12.52;45.92;101335.38;5050952;28;20029;-83
2021/04/27 08:05:21;;;;;;;7.03;5.28;;;;;;;12.54;45.34;101330.91;5051776;28;20029;-83
2021/04/27 08:07:47;;;;;;;8.52;5.43;;;;;;;12.57;45.09;101338.84;5051443;28;20037;-84
2021/04/27 08:10:15;;;;;;;7.57;5.25;;;;;;;12.67;44.56;101336.84;5049747;28;20591;-86
2021/04/27 08:12:44;;;;;;;6.38;4.63;;;;;;;12.76;45.09;101336.69;5051103;28;20037;-85
2021/04/27 08:15:13;;;;;;;6.93;5.38;;;;;;;12.79;44.76;101335.72;5049375;28;20021;-86
2021/04/27 08:17:40;;;;;;;8.75;5.75;;;;;;;12.86;45.22;101337.34;5046051;28;20985;-83
2021/04/27 08:20:09;;;;;;;6.53;4.15;;;;;;;12.88;44.55;101326.69;5049555;28;20573;-84
2021/04/27 08:22:35;;;;;;;9.63;4.90;;;;;;;12.90;44.51;101323.06;5048108;28;20037;-81
2021/04/27 08:25:03;;;;;;;6.75;4.90;;;;;;;12.87;44.50;101317.84;5046289;28;20024;-80
2021/04/27 08:27:29;;;;;;;10.60;5.43;;;;;;;12.80;44.40;101326.84;5047194;28;20025;-83
2021/04/27 08:29:55;;;;;;;12.77;8.77;;;;;;;12.77;44.17;101326.91;5047450;28;20029;-83
2021/04/27 08:32:25;;;;;;;19.80;12.57;;;;;;;12.75;44.74;101318.97;5052315;28;20037;-83
2021/04/27 08:34:52;;;;;;;11.45;6.45;;;;;;;12.80;44.86;101313.56;5052010;28;20043;-83
2021/04/27 08:37:18;;;;;;;10.98;6.05;;;;;;;12.86;44.46;101320.50;5052613;28;20029;-82
2021/04/27 08:39:45;;;;;;;9.18;5.90;;;;;;;12.91;44.73;101311.53;5046692;28;20075;-82
2021/04/27 08:42:11;;;;;;;11.15;5.65;;;;;;;13.03;44.61;101304.19;5042603;28;20029;-82
2021/04/27 08:44:40;;;;;;;7.53;6.15;;;;;;;13.24;44.71;101306.31;5050467;28;20056;-82
2021/04/27 08:47:08;;;;;;;11.85;5.65;;;;;;;13.40;43.93;101306.00;5050988;28;20319;-82
2021/04/27 08:49:34;;;;;;;7.38;5.35;;;;;;;13.51;43.78;101303.97;5052382;28;20021;-83
2021/04/27 08:52:01;;;;;;;10.20;5.00;;;;;;;13.59;43.28;101309.97;5049942;28;20036;-83
2021/04/27 08:54:27;;;;;;;16.67;9.25;;;;;;;13.67;43.34;101295.56;5044667;28;20396;-82
2021/04/27 08:56:57;;;;;;;8.55;6.18;;;;;;;13.75;43.17;101297.13;5047220;28;20072;-82
2021/04/27 08:59:24;;;;;;;11.77;5.20;;;;;;;13.88;42.72;101292.38;5046095;28;20029;-82
2021/04/27 09:01:50;;;;;;;6.40;5.15;;;;;;;13.93;43.27;101299.34;5048224;28;20071;-83
2021/04/27 09:04:41;;;;;;;6.97;5.40;;;;;;;14.20;42.49;101293.25;5050121;28;20071;-83
2021/04/27 09:07:11;;;;;;;10.93;6.55;;;;;;;14.23;42.22;101298.50;5049377;28;20021;-85
2021/04/27 09:09:50;;;;;;;7.90;5.53;;;;;;;14.41;42.74;101298.91;5049971;28;20029;-85
2021/04/27 09:15:08;;;;;;;11.85;6.05;;;;;;;14.50;41.71;101295.09;5071969;27;20758;-78
2021/04/27 09:17:34;;;;;;;7.38;5.97;;;;;;;14.55;42.68;101290.50;5055098;28;20381;-79
2021/04/27 09:20:00;;;;;;;12.18;5.50;;;;;;;14.75;42.24;101289.94;5051724;28;20025;-81
2021/04/27 09:22:34;;;;;;;7.60;5.32;;;;;;;14.95;41.41;101280.44;5057222;28;20068;-80
2021/04/27 09:25:06;;;;;;;8.70;5.55;;;;;;;14.95;40.93;101280.44;5058206;28;20035;-80
2021/04/27 09:30:28;;;;;;;6.78;5.05;;;;;;;15.23;41.30;101280.44;5069296;27;20399;-82
2021/04/27 09:32:57;;;;;;;15.20;5.10;;;;;;;15.32;40.89;101279.28;5058773;28;20452;-81
2021/04/27 09:40:53;;;;;;;7.65;5.03;;;;;;;15.73;40.07;101268.13;5108175;27;20886;-81
2021/04/27 09:43:38;;;;;;;10.00;5.18;;;;;;;15.82;39.52;101267.81;5105248;28;20055;-84
2021/04/27 09:46:08;;;;;;;26.00;14.68;;;;;;;15.88;39.71;101264.94;5106531;28;20429;-83
2021/04/27 09:48:38;;;;;;;9.60;5.95;;;;;;;16.04;39.66;101259.91;5108105;28;20036;-84
2021/04/27 09:53:55;;;;;;;6.00;4.80;;;;;;;16.25;37.86;101252.03;5055323;28;20378;-80
2021/04/27 09:59:31;;;;;;;16.33;6.05;;;;;;;16.61;37.42;101239.06;5085641;27;20372;-84
2021/04/27 10:02:01;;;;;;;42.33;7.30;;;;;;;16.70;37.84;101240.50;5074374;28;20036;-81
2021/04/27 10:04:28;;;;;;;8.38;5.50;;;;;;;16.75;37.84;101227.81;5069598;28;20025;-84
2021/04/27 10:06:57;;;;;;;22.65;6.55;;;;;;;16.87;38.47;101236.28;5060180;28;20032;-79
2021/04/27 10:09:25;;;;;;;8.10;4.68;;;;;;;16.97;37.84;101229.66;5065898;28;20054;-79
2021/04/27 10:11:52;;;;;;;8.00;4.32;;;;;;;17.22;36.74;101225.97;5065502;28;20025;-84
2021/04/27 10:14:19;;;;;;;5.88;4.20;;;;;;;17.43;35.95;101218.81;5066464;28;20032;-83
2021/04/27 10:16:46;;;;;;;9.98;4.50;;;;;;;17.52;36.18;101223.81;5059238;28;20079;-84
2021/04/27 10:19:13;;;;;;;7.30;4.53;;;;;;;17.71;35.66;101223.00;5067619;28;20468;-83
2021/04/27 10:21:39;;;;;;;7.80;4.10;;;;;;;17.83;35.00;101218.91;5071955;28;20485;-82
2021/04/27 10:24:14;;;;;;;9.35;4.95;;;;;;;17.81;33.45;101208.25;5079997;28;20092;-84
2021/04/27 10:26:45;;;;;;;7.32;5.07;;;;;;;17.84;33.87;101204.56;5068121;28;20017;-82
2021/04/27 10:32:20;;;;;;;6.13;3.95;;;;;;;18.18;34.52;101195.00;5064013;28;20383;-84
2021/04/27 10:41:01;;;;;;;7.00;5.00;;;;;;;18.61;31.76;101184.94;5000743;28;20803;-85
2021/04/27 10:46:09;;;;;;;6.53;4.38;;;;;;;18.86;32.75;101176.53;5058594;28;20418;-84
2021/04/27 10:48:39;;;;;;;5.57;3.83;;;;;;;19.08;33.26;101171.00;5047054;28;20079;-80
2021/04/27 10:59:51;;;;;;;5.47;4.07;;;;;;;19.42;30.79;101170.25;5081185;27;20383;-84
2021/04/27 11:02:23;;;;;;;10.55;4.43;;;;;;;19.47;29.30;101168.16;5074033;28;20107;-82
2021/04/27 11:04:53;;;;;;;6.38;4.97;;;;;;;19.56;29.28;101148.88;5074452;28;20029;-84
2021/04/27 11:12:41;;;;;;;12.35;5.10;;;;;;;19.68;30.75;101148.22;5061484;28;20430;-84
2021/04/27 11:15:21;;;;;;;6.80;4.47;;;;;;;19.85;29.05;101135.69;5042755;28;20046;-86
2021/04/27 11:21:03;;;;;;;10.35;4.03;;;;;;;20.13;28.58;101127.00;5108283;27;20364;-84
2021/04/27 11:29:21;;;;;;;8.18;4.13;;;;;;;20.22;27.55;101130.13;5082540;27;20354;-80
2021/04/27 11:32:06;;;;;;;7.82;4.57;;;;;;;20.27;26.82;101128.91;5033947;28;20026;-86
2021/04/27 11:37:41;;;;;;;8.93;4.30;;;;;;;20.19;26.49;101128.47;5032698;27;1527095;-89
2021/04/27 11:45:51;;;;;;;4.85;3.55;;;;;;;20.56;27.46;101123.72;5155260;27;20737;-88
2021/04/27 11:48:19;;;;;;;5.40;4.13;;;;;;;20.52;27.06;101122.13;5137411;27;20030;-87
2021/04/27 11:50:46;;;;;;;7.47;3.85;;;;;;;20.67;26.74;101123.94;5144956;27;20028;-86
2021/04/27 11:53:16;;;;;;;6.50;4.28;;;;;;;20.68;26.27;101127.50;5136261;27;20077;-87
2021/04/27 11:55:46;;;;;;;7.05;3.95;;;;;;;20.70;25.11;101125.59;5130679;28;20084;-87
2021/04/27 11:58:23;;;;;;;6.43;4.20;;;;;;;20.75;26.22;101119.94;5130621;28;20035;-87
2021/04/27 12:00:55;;;;;;;6.80;4.55;;;;;;;20.75;26.03;101122.63;5130391;28;20023;-89
2021/04/27 12:03:28;;;;;;;4.38;3.78;;;;;;;20.97;25.76;101116.84;5130559;27;20038;-88
2021/04/27 12:06:09;;;;;;;8.57;4.53;;;;;;;20.96;25.13;101115.13;5130132;28;20114;-89
2021/04/27 12:08:39;;;;;;;6.32;3.97;;;;;;;20.94;25.20;101117.91;5130164;28;20032;-87
2021/04/27 12:13:52;;;;;;;6.10;4.32;;;;;;;21.00;25.58;101109.47;5104678;27;20367;-90
2021/04/27 12:19:10;;;;;;;9.68;4.65;;;;;;;21.14;25.77;101102.38;5082882;27;20432;-86
2021/04/27 12:24:39;;;;;;;7.22;4.53;;;;;;;21.23;25.10;101101.81;5081047;28;20421;-89
2021/04/27 12:27:10;;;;;;;4.53;3.80;;;;;;;21.43;24.07;101099.72;5070042;28;20029;-89
2021/04/27 12:29:40;;;;;;;9.98;4.40;;;;;;;21.45;25.00;101095.97;5070357;28;20028;-87
2021/04/27 12:32:11;;;;;;;6.63;4.65;;;;;;;21.40;25.05;101092.72;5065888;28;20144;-88
2021/04/27 12:34:58;;;;;;;7.10;4.35;;;;;;;21.55;24.63;101085.50;5050166;28;20059;-90
2021/04/27 12:37:26;;;;;;;9.52;4.40;;;;;;;21.50;26.17;101082.22;5049557;28;20025;-89
2021/04/27 12:39:53;;;;;;;5.50;4.32;;;;;;;21.68;25.05;101068.56;5050021;28;20118;-90
2021/04/27 12:45:06;;;;;;;6.45;4.30;;;;;;;21.80;24.87;101070.50;5078929;28;20877;-89
2021/04/27 12:47:35;;;;;;;5.32;4.53;;;;;;;21.80;24.89;101065.97;5069742;28;20498;-88
2021/04/27 12:50:13;;;;;;;6.50;4.00;;;;;;;22.00;24.46;101063.81;5070010;28;20033;-88
2021/04/27 12:52:43;;;;;;;6.20;4.13;;;;;;;22.00;24.32;101063.81;5061697;28;20108;-90
2021/04/27 12:55:12;;;;;;;10.10;4.60;;;;;;;22.01;24.91;101054.75;5049989;28;20021;-90